WMKC/KBR METAR and TAF weather

Enter ICAO airport designator
Station Type Date Time Source
WMKC METAR 2020/09/27 00:00 UTC NOAA

WMKC 270000Z 22004KT 160V260 9999 FEW020 25/23 Q1009


Station Type Date Time Source
WMKC Decoded METAR 2020/09/27 00:00 UTC NOAA

Kota Bharu, Malaysia (WMKC) 06-10N 102-17E 5M
Sep 26, 2020 - 08:00 PM EDT / 2020.09.27 0000 UTC
Wind: from the SW (220 degrees) at 5 MPH (4 KT) (direction variable):0
Visibility: greater than 7 mile(s):0
Sky conditions: mostly clear
Temperature: 77 F (25 C)
Dew Point: 73 F (23 C)
Relative Humidity: 88%
Pressure (altimeter): 29.80 in. Hg (1009 hPa)
ob: WMKC 270000Z 22004KT 160V260 9999 FEW020 25/23 Q1009
cycle: 0

Station Type Date Time Source
WMKC TAF 2020/09/26 18:00 UTC NOAA

TAF WMKC 261700Z 2618/2718 VRB03KT 9999 FEW020
TEMPO 2618/2622 7000 -TSRA FEW017CB
BECMG 2700/2701 23006KT FEW018
BECMG 2709/2710 FEW017CB

Example: see airport list